Time;durP1;ratioP1;P1;durP2;ratioP2;P2;SDS_P1;SDS_P2;PMS_P1;PMS_P2;Temp;Humidity;BMP_temperature;BMP_pressure;BME280_temperature;BME280_humidity;BME280_pressure;Samples;Min_cycle;Max_cycle;Signal;HPM_P1;HPM_P2
2021/08/12 00:00:37;;;;;;;1.83;0.90;;;;;;;;;;5001879;28;20065;-64
2021/08/12 00:03:04;;;;;;;1.30;0.80;;;;;;;;;;5012304;28;20420;-64
2021/08/12 00:05:31;;;;;;;0.60;0.60;;;;;;;;;;5008929;28;20052;-64
2021/08/12 00:07:58;;;;;;;0.90;0.80;;;;;;;;;;5000872;28;20034;-65
2021/08/12 00:10:25;;;;;;;4.00;0.90;;;;;;;;;;5006710;28;20532;-64
2021/08/12 00:12:51;;;;;;;1.05;0.70;;;;;;;;;;5010009;28;20363;-65
2021/08/12 00:15:19;;;;;;;1.08;0.80;;;;;;;;;;5011421;28;20030;-63
2021/08/12 00:17:46;;;;;;;1.45;0.80;;;;;;;;;;5006603;28;20037;-64
2021/08/12 00:20:13;;;;;;;1.13;0.80;;;;;;;;;;5004252;28;20112;-64
2021/08/12 00:22:39;;;;;;;2.55;1.00;;;;;;;;;;5011829;28;20557;-64
2021/08/12 00:25:07;;;;;;;0.80;0.80;;;;;;;;;;5008687;28;20491;-64
2021/08/12 00:27:34;;;;;;;0.70;0.70;;;;;;;;;;5004700;28;20104;-62
2021/08/12 00:30:02;;;;;;;1.00;0.90;;;;;;;;;;5005260;28;20046;-64
2021/08/12 00:32:28;;;;;;;1.85;0.70;;;;;;;;;;4996568;28;20041;-64
2021/08/12 00:34:55;;;;;;;0.70;0.70;;;;;;;;;;5000140;28;20050;-63
2021/08/12 00:37:22;;;;;;;0.70;0.70;;;;;;;;;;5004244;28;20042;-63
2021/08/12 00:39:49;;;;;;;1.27;0.80;;;;;;;;;;5003175;28;20757;-64
2021/08/12 00:42:15;;;;;;;1.65;1.00;;;;;;;;;;5006165;28;20050;-64
2021/08/12 00:44:42;;;;;;;0.70;0.70;;;;;;;;;;5000326;28;20045;-64
2021/08/12 00:47:09;;;;;;;2.25;0.80;;;;;;;;;;4999924;28;20492;-64
2021/08/12 00:49:37;;;;;;;1.33;1.23;;;;;;;;;;5008090;28;20092;-63
2021/08/12 00:52:09;;;;;;;1.27;0.80;;;;;;;;;;4996743;28;20042;-64
2021/08/12 00:54:37;;;;;;;0.70;0.70;;;;;;;;;;5008856;28;20046;-64
2021/08/12 00:57:04;;;;;;;4.22;1.27;;;;;;;;;;4998410;28;20073;-64
2021/08/12 00:59:49;;;;;;;0.80;0.80;;;;;;;;;;4998518;28;20045;-63
2021/08/12 01:02:16;;;;;;;1.70;1.02;;;;;;;;;;5006313;28;20053;-64
2021/08/12 01:04:46;;;;;;;5.78;0.70;;;;;;;;;;4993997;28;20470;-64
2021/08/12 01:07:23;;;;;;;0.80;0.80;;;;;;;;;;5008966;28;20129;-64
2021/08/12 01:09:58;;;;;;;0.80;0.80;;;;;;;;;;5010201;28;20536;-64
2021/08/12 01:12:37;;;;;;;0.80;0.80;;;;;;;;;;5008432;28;20133;-64
2021/08/12 01:15:04;;;;;;;1.77;0.80;;;;;;;;;;5009888;28;20046;-64
2021/08/12 01:17:34;;;;;;;0.77;0.77;;;;;;;;;;5009049;28;20044;-64
2021/08/12 01:20:10;;;;;;;1.05;0.90;;;;;;;;;;5006635;28;20068;-64
2021/08/12 01:22:55;;;;;;;2.80;0.98;;;;;;;;;;5006297;28;20046;-64
2021/08/12 01:25:23;;;;;;;1.15;1.05;;;;;;;;;;5004180;28;20046;-64
2021/08/12 01:27:51;;;;;;;0.70;0.70;;;;;;;;;;5005880;28;20048;-64
2021/08/12 01:30:21;;;;;;;1.67;0.80;;;;;;;;;;5006904;28;20057;-64
2021/08/12 01:32:59;;;;;;;0.80;0.80;;;;;;;;;;4993291;28;20030;-64
2021/08/12 01:35:28;;;;;;;2.20;0.80;;;;;;;;;;5008592;28;20030;-64
2021/08/12 01:38:02;;;;;;;0.80;0.80;;;;;;;;;;5007591;28;20576;-64
2021/08/12 01:40:32;;;;;;;0.98;0.80;;;;;;;;;;5008482;28;20092;-64
2021/08/12 01:43:00;;;;;;;0.80;0.80;;;;;;;;;;5003431;28;20089;-64
2021/08/12 01:45:28;;;;;;;1.45;0.80;;;;;;;;;;5000022;28;20049;-64
2021/08/12 01:47:56;;;;;;;2.05;0.90;;;;;;;;;;5008743;28;20474;-64
2021/08/12 01:50:24;;;;;;;0.90;0.90;;;;;;;;;;5008058;28;20752;-64
2021/08/12 01:52:52;;;;;;;2.15;0.80;;;;;;;;;;5007198;28;20026;-64
2021/08/12 01:55:21;;;;;;;1.02;0.90;;;;;;;;;;5008192;28;20573;-64
2021/08/12 01:57:48;;;;;;;0.80;0.80;;;;;;;;;;5007485;28;20038;-64
2021/08/12 02:00:15;;;;;;;1.83;0.90;;;;;;;;;;5014976;28;20042;-64
2021/08/12 02:02:44;;;;;;;2.80;0.90;;;;;;;;;;5013532;28;20050;-64
2021/08/12 02:05:15;;;;;;;2.92;0.98;;;;;;;;;;5014321;28;20054;-64
2021/08/12 02:07:44;;;;;;;0.77;0.77;;;;;;;;;;5008216;28;20113;-64
2021/08/12 02:10:12;;;;;;;1.73;1.00;;;;;;;;;;5013895;28;20104;-64
2021/08/12 02:12:39;;;;;;;1.95;1.63;;;;;;;;;;5008445;28;20497;-64
2021/08/12 02:15:06;;;;;;;1.52;0.80;;;;;;;;;;5017927;28;20045;-64
2021/08/12 02:17:33;;;;;;;0.70;0.70;;;;;;;;;;5018320;28;20390;-64
2021/08/12 02:20:04;;;;;;;2.22;0.70;;;;;;;;;;5014627;28;20398;-65
2021/08/12 02:22:35;;;;;;;0.82;0.80;;;;;;;;;;5014895;28;20050;-64
2021/08/12 02:25:05;;;;;;;3.00;0.80;;;;;;;;;;5004993;28;20665;-64
2021/08/12 02:27:36;;;;;;;0.80;0.80;;;;;;;;;;5014898;28;20092;-64
2021/08/12 02:30:03;;;;;;;0.88;0.88;;;;;;;;;;5013574;28;20034;-64
2021/08/12 02:32:31;;;;;;;0.90;0.90;;;;;;;;;;4999971;28;20097;-64
2021/08/12 02:34:58;;;;;;;0.80;0.80;;;;;;;;;;5010427;28;20121;-64
2021/08/12 02:37:26;;;;;;;1.58;0.80;;;;;;;;;;5012799;28;20073;-64
2021/08/12 02:39:53;;;;;;;0.80;0.80;;;;;;;;;;5005923;28;20042;-64
2021/08/12 02:42:21;;;;;;;1.85;1.00;;;;;;;;;;5006642;28;20077;-64
2021/08/12 02:44:48;;;;;;;1.23;0.85;;;;;;;;;;5009751;28;20044;-64
2021/08/12 02:47:15;;;;;;;1.95;0.88;;;;;;;;;;5011568;28;20112;-65
2021/08/12 02:49:43;;;;;;;1.95;0.93;;;;;;;;;;5013304;28;20045;-64
2021/08/12 02:52:11;;;;;;;0.80;0.80;;;;;;;;;;5004470;28;20049;-64
2021/08/12 02:54:39;;;;;;;0.75;0.75;;;;;;;;;;5008716;28;20125;-64
2021/08/12 02:57:06;;;;;;;2.17;0.80;;;;;;;;;;5013527;28;20057;-64
2021/08/12 02:59:32;;;;;;;0.80;0.80;;;;;;;;;;5011266;28;20044;-64
2021/08/12 03:02:00;;;;;;;1.98;0.90;;;;;;;;;;5004650;28;20375;-64
2021/08/12 03:04:28;;;;;;;0.90;0.90;;;;;;;;;;5013817;28;20508;-64
2021/08/12 03:06:57;;;;;;;3.53;0.95;;;;;;;;;;5013082;28;20125;-64
2021/08/12 03:09:25;;;;;;;1.40;1.10;;;;;;;;;;5006903;28;20042;-64
2021/08/12 03:11:55;;;;;;;1.20;0.90;;;;;;;;;;5012505;28;20367;-64
2021/08/12 03:14:22;;;;;;;1.70;0.70;;;;;;;;;;5002196;28;20117;-64
2021/08/12 03:16:50;;;;;;;1.88;0.88;;;;;;;;;;5012275;28;20034;-64
2021/08/12 03:19:17;;;;;;;1.17;0.90;;;;;;;;;;5006487;28;20405;-64
2021/08/12 03:22:02;;;;;;;1.50;0.80;;;;;;;;;;4995032;28;20037;-64
2021/08/12 03:24:30;;;;;;;2.53;0.80;;;;;;;;;;5012197;28;20100;-64
2021/08/12 03:26:56;;;;;;;0.90;0.90;;;;;;;;;;5012318;28;20042;-64
2021/08/12 03:29:24;;;;;;;1.00;1.00;;;;;;;;;;5002157;28;20062;-64
2021/08/12 03:31:50;;;;;;;1.70;0.90;;;;;;;;;;5019941;28;20039;-64
2021/08/12 03:34:17;;;;;;;2.33;2.17;;;;;;;;;;4997848;28;20038;-64
2021/08/12 03:36:44;;;;;;;1.65;1.10;;;;;;;;;;5009343;28;20053;-64
2021/08/12 03:39:11;;;;;;;1.80;1.00;;;;;;;;;;5011490;28;20038;-64
2021/08/12 03:41:37;;;;;;;1.00;1.00;;;;;;;;;;5005066;28;20509;-64
2021/08/12 03:44:04;;;;;;;1.35;1.08;;;;;;;;;;5006410;28;20050;-65
2021/08/12 03:46:31;;;;;;;1.35;1.00;;;;;;;;;;5010521;28;20125;-64
2021/08/12 03:48:58;;;;;;;1.30;1.20;;;;;;;;;;5004991;28;20095;-64
2021/08/12 03:51:25;;;;;;;4.18;1.10;;;;;;;;;;5009338;28;20088;-64
2021/08/12 03:53:51;;;;;;;1.23;1.13;;;;;;;;;;5026466;28;20030;-64
2021/08/12 03:56:18;;;;;;;7.78;1.10;;;;;;;;;;5011204;28;20092;-64
2021/08/12 03:58:45;;;;;;;3.80;1.55;;;;;;;;;;5003803;28;20058;-65
2021/08/12 04:01:11;;;;;;;1.50;1.40;;;;;;;;;;4996175;28;20047;-64
2021/08/12 04:03:38;;;;;;;1.10;1.02;;;;;;;;;;5005217;28;20469;-64
2021/08/12 04:06:05;;;;;;;1.35;1.08;;;;;;;;;;5010206;28;20042;-64
2021/08/12 04:08:32;;;;;;;3.42;1.00;;;;;;;;;;5003126;28;20467;-64
2021/08/12 04:10:59;;;;;;;1.27;1.17;;;;;;;;;;5008743;28;20088;-64
2021/08/12 04:13:25;;;;;;;2.17;1.13;;;;;;;;;;5002159;28;20415;-64
2021/08/12 04:15:53;;;;;;;2.97;1.20;;;;;;;;;;5008914;28;20034;-64
2021/08/12 04:18:21;;;;;;;1.70;1.60;;;;;;;;;;5010622;28;20386;-64
2021/08/12 04:20:48;;;;;;;1.42;1.33;;;;;;;;;;5006556;28;20096;-64
2021/08/12 04:23:14;;;;;;;2.35;1.20;;;;;;;;;;5010148;28;20473;-64
2021/08/12 04:25:41;;;;;;;0.90;0.90;;;;;;;;;;4996720;28;20057;-65
2021/08/12 04:28:08;;;;;;;8.32;1.00;;;;;;;;;;5003585;28;20114;-64
2021/08/12 04:30:35;;;;;;;1.50;1.10;;;;;;;;;;5005402;28;20042;-64
2021/08/12 04:33:01;;;;;;;3.90;1.10;;;;;;;;;;5000442;28;20042;-64
2021/08/12 04:35:28;;;;;;;1.20;1.10;;;;;;;;;;5002866;28;20506;-65
2021/08/12 04:37:55;;;;;;;1.45;1.05;;;;;;;;;;5011981;28;20042;-64
2021/08/12 04:40:22;;;;;;;1.70;0.90;;;;;;;;;;5004592;28;20034;-65
2021/08/12 04:42:49;;;;;;;1.90;1.00;;;;;;;;;;5001522;28;20076;-65
2021/08/12 04:45:17;;;;;;;2.25;1.13;;;;;;;;;;5005260;28;20045;-65
2021/08/12 04:47:44;;;;;;;4.25;1.00;;;;;;;;;;5005031;28;20121;-65
2021/08/12 04:50:11;;;;;;;1.00;1.00;;;;;;;;;;4992533;28;20070;-65
2021/08/12 04:52:41;;;;;;;1.20;1.10;;;;;;;;;;5009967;28;20736;-65
2021/08/12 04:55:08;;;;;;;1.50;1.10;;;;;;;;;;5010007;28;20034;-64
2021/08/12 04:57:35;;;;;;;1.30;1.00;;;;;;;;;;5005641;28;20069;-65
2021/08/12 05:00:03;;;;;;;2.00;1.40;;;;;;;;;;5006908;28;20052;-64
2021/08/12 05:02:30;;;;;;;1.88;1.17;;;;;;;;;;5008783;28;20042;-64
2021/08/12 05:04:57;;;;;;;1.98;1.40;;;;;;;;;;5001868;28;20439;-64
2021/08/12 05:07:24;;;;;;;2.88;1.20;;;;;;;;;;5000105;28;20042;-65
2021/08/12 05:09:50;;;;;;;2.30;0.93;;;;;;;;;;4994028;28;20043;-65
2021/08/12 05:12:19;;;;;;;1.20;1.10;;;;;;;;;;5006409;28;20038;-65
2021/08/12 05:14:46;;;;;;;1.80;1.17;;;;;;;;;;5000443;28;20479;-64
2021/08/12 05:17:14;;;;;;;2.55;1.05;;;;;;;;;;5001771;28;20088;-64
2021/08/12 05:19:43;;;;;;;2.55;1.00;;;;;;;;;;4999752;28;20042;-65
2021/08/12 05:22:10;;;;;;;2.72;0.80;;;;;;;;;;5006789;28;20038;-67
2021/08/12 05:24:37;;;;;;;0.90;0.90;;;;;;;;;;5006470;28;20061;-67
2021/08/12 05:27:04;;;;;;;0.80;0.80;;;;;;;;;;5007521;28;20065;-67
2021/08/12 05:29:31;;;;;;;2.25;0.93;;;;;;;;;;4998680;28;20050;-67
2021/08/12 05:31:58;;;;;;;1.00;0.90;;;;;;;;;;5002868;28;20382;-67
2021/08/12 05:34:25;;;;;;;1.60;1.10;;;;;;;;;;4991126;28;20039;-67
2021/08/12 05:36:52;;;;;;;4.03;1.00;;;;;;;;;;5007498;28;20042;-67
2021/08/12 05:39:18;;;;;;;3.97;1.20;;;;;;;;;;5006445;28;20034;-67
2021/08/12 05:41:45;;;;;;;1.13;1.08;;;;;;;;;;5010741;28;20042;-67
2021/08/12 05:44:12;;;;;;;1.35;1.10;;;;;;;;;;5007338;28;20034;-67
2021/08/12 05:46:39;;;;;;;3.95;1.23;;;;;;;;;;5004262;28;20041;-67
2021/08/12 05:49:06;;;;;;;1.27;1.10;;;;;;;;;;5003556;28;20034;-67
2021/08/12 05:51:34;;;;;;;1.13;1.13;;;;;;;;;;4996616;28;20042;-67
2021/08/12 05:54:01;;;;;;;0.90;0.90;;;;;;;;;;5010100;28;20034;-67
2021/08/12 05:56:28;;;;;;;3.72;1.02;;;;;;;;;;5007766;28;20053;-67
2021/08/12 05:58:55;;;;;;;6.63;1.17;;;;;;;;;;5008545;28;20030;-67
2021/08/12 06:01:22;;;;;;;1.08;1.00;;;;;;;;;;5003822;28;20031;-66
2021/08/12 06:03:48;;;;;;;2.42;1.00;;;;;;;;;;5009068;28;20561;-67
2021/08/12 06:06:15;;;;;;;0.90;0.90;;;;;;;;;;5008740;28;20540;-67
2021/08/12 06:08:43;;;;;;;1.08;0.90;;;;;;;;;;5003755;28;20078;-67
2021/08/12 06:11:11;;;;;;;0.93;0.93;;;;;;;;;;4991873;28;20043;-67
2021/08/12 06:13:38;;;;;;;5.10;0.88;;;;;;;;;;5000680;28;20101;-67
2021/08/12 06:16:06;;;;;;;0.93;0.90;;;;;;;;;;5005595;28;20529;-67
2021/08/12 06:18:33;;;;;;;1.98;1.42;;;;;;;;;;5004992;28;20042;-67
2021/08/12 06:21:00;;;;;;;2.05;1.05;;;;;;;;;;5007232;28;20061;-66
2021/08/12 06:23:27;;;;;;;0.80;0.80;;;;;;;;;;5007953;28;20050;-67
2021/08/12 06:25:54;;;;;;;0.80;0.80;;;;;;;;;;4999242;28;20050;-67
2021/08/12 06:28:21;;;;;;;1.10;0.80;;;;;;;;;;5002677;28;20678;-67
2021/08/12 06:30:48;;;;;;;1.42;1.10;;;;;;;;;;4991776;28;20057;-67
2021/08/12 06:33:15;;;;;;;2.10;1.08;;;;;;;;;;5006756;28;20433;-67
2021/08/12 06:35:41;;;;;;;5.38;1.77;;;;;;;;;;4994991;28;20037;-66
2021/08/12 06:38:08;;;;;;;3.17;0.90;;;;;;;;;;5009268;28;20050;-66
2021/08/12 06:40:35;;;;;;;5.57;0.93;;;;;;;;;;5007630;28;20064;-67
2021/08/12 06:43:02;;;;;;;1.95;0.80;;;;;;;;;;4991773;28;20038;-67
2021/08/12 06:45:28;;;;;;;2.97;0.82;;;;;;;;;;5011873;28;20486;-67
2021/08/12 06:47:56;;;;;;;1.00;0.90;;;;;;;;;;5002662;28;20038;-67
2021/08/12 06:50:23;;;;;;;1.77;0.80;;;;;;;;;;4999738;28;20092;-66
2021/08/12 06:52:51;;;;;;;2.78;0.90;;;;;;;;;;5006309;28;20041;-66
2021/08/12 06:55:18;;;;;;;0.95;0.88;;;;;;;;;;4994981;28;20084;-66
2021/08/12 06:57:45;;;;;;;4.47;0.95;;;;;;;;;;5011365;28;20065;-67
2021/08/12 07:00:13;;;;;;;2.45;0.82;;;;;;;;;;5006048;28;20092;-67
2021/08/12 07:02:40;;;;;;;1.25;0.82;;;;;;;;;;5013568;28;20040;-67
2021/08/12 07:05:08;;;;;;;1.42;1.38;;;;;;;;;;5008861;28;20564;-66
2021/08/12 07:07:35;;;;;;;3.80;0.75;;;;;;;;;;4994782;28;20042;-65
2021/08/12 07:10:02;;;;;;;0.90;0.90;;;;;;;;;;5003249;28;20042;-66
2021/08/12 07:12:29;;;;;;;0.70;0.70;;;;;;;;;;5004555;28;20045;-66
2021/08/12 07:14:56;;;;;;;1.48;0.70;;;;;;;;;;4999830;28;20065;-66
2021/08/12 07:17:23;;;;;;;2.60;1.13;;;;;;;;;;5006931;28;20038;-66
2021/08/12 07:19:49;;;;;;;0.82;0.80;;;;;;;;;;5002219;28;20457;-66
2021/08/12 07:22:17;;;;;;;1.83;0.90;;;;;;;;;;5001370;28;20507;-66
2021/08/12 07:24:44;;;;;;;1.10;1.00;;;;;;;;;;5002637;28;20042;-66
2021/08/12 07:27:11;;;;;;;5.90;0.90;;;;;;;;;;5013682;28;20057;-66
2021/08/12 07:29:37;;;;;;;1.50;0.70;;;;;;;;;;5006726;28;20132;-66
2021/08/12 07:32:04;;;;;;;1.92;0.80;;;;;;;;;;5003567;28;20038;-66
2021/08/12 07:34:31;;;;;;;3.60;0.70;;;;;;;;;;5011658;28;20069;-65
2021/08/12 07:36:58;;;;;;;11.00;0.80;;;;;;;;;;5011048;28;20058;-66
2021/08/12 07:39:24;;;;;;;1.27;0.73;;;;;;;;;;5012169;28;20044;-66
2021/08/12 07:41:51;;;;;;;0.70;0.70;;;;;;;;;;5009792;28;20038;-66
2021/08/12 07:44:18;;;;;;;0.70;0.70;;;;;;;;;;5009853;28;20077;-66
2021/08/12 07:46:45;;;;;;;0.95;0.70;;;;;;;;;;5001020;28;20070;-66
2021/08/12 07:49:11;;;;;;;0.70;0.70;;;;;;;;;;5012608;28;20439;-65
2021/08/12 07:51:38;;;;;;;3.17;0.68;;;;;;;;;;4993407;28;20078;-66
2021/08/12 07:54:05;;;;;;;2.55;0.70;;;;;;;;;;5009108;28;20053;-66
2021/08/12 07:56:32;;;;;;;3.50;0.80;;;;;;;;;;5009282;28;20046;-66
2021/08/12 07:58:58;;;;;;;2.25;0.70;;;;;;;;;;4998550;28;20104;-66
2021/08/12 08:01:25;;;;;;;1.60;0.70;;;;;;;;;;5008112;28;20092;-66
2021/08/12 08:03:53;;;;;;;1.85;0.80;;;;;;;;;;5002169;28;20045;-66
2021/08/12 08:06:20;;;;;;;6.07;1.27;;;;;;;;;;5011055;28;20449;-66
2021/08/12 08:08:47;;;;;;;3.00;0.70;;;;;;;;;;5010711;28;20038;-66
2021/08/12 08:11:17;;;;;;;0.70;0.70;;;;;;;;;;4997134;28;20046;-66
2021/08/12 08:13:44;;;;;;;2.80;0.60;;;;;;;;;;5006734;28;20038;-66
2021/08/12 08:16:11;;;;;;;1.15;0.60;;;;;;;;;;5008366;28;20030;-66
2021/08/12 08:18:38;;;;;;;1.58;0.60;;;;;;;;;;5002261;28;20487;-66
2021/08/12 08:21:05;;;;;;;0.60;0.60;;;;;;;;;;5001731;28;20049;-66
2021/08/12 08:23:31;;;;;;;2.88;0.60;;;;;;;;;;5012430;28;20041;-66
2021/08/12 08:25:58;;;;;;;1.08;0.60;;;;;;;;;;5006561;28;20125;-65
2021/08/12 08:28:25;;;;;;;1.40;0.60;;;;;;;;;;4995045;28;20088;-66
2021/08/12 08:30:52;;;;;;;0.50;0.50;;;;;;;;;;5000634;28;20042;-66
2021/08/12 08:33:18;;;;;;;0.90;0.50;;;;;;;;;;5002274;28;20383;-66
2021/08/12 08:35:45;;;;;;;0.77;0.60;;;;;;;;;;5011888;28;20076;-66
2021/08/12 08:38:12;;;;;;;1.55;0.60;;;;;;;;;;5004903;28;20141;-65
2021/08/12 08:40:39;;;;;;;0.80;0.60;;;;;;;;;;4999548;28;20038;-66
2021/08/12 08:43:06;;;;;;;0.77;0.60;;;;;;;;;;5000484;28;20379;-66
2021/08/12 08:45:35;;;;;;;1.60;0.50;;;;;;;;;;5003354;28;20054;-66
2021/08/12 08:48:03;;;;;;;0.60;0.60;;;;;;;;;;5003696;28;20034;-66
2021/08/12 08:50:32;;;;;;;1.67;0.60;;;;;;;;;;5004113;28;20392;-66
2021/08/12 08:52:59;;;;;;;6.65;1.05;;;;;;;;;;4998213;28;20030;-66
2021/08/12 08:55:27;;;;;;;0.50;0.50;;;;;;;;;;4997192;28;20038;-65
2021/08/12 08:57:54;;;;;;;1.38;0.57;;;;;;;;;;5005118;28;20083;-65
2021/08/12 09:00:22;;;;;;;0.50;0.50;;;;;;;;;;4992106;28;20084;-65
2021/08/12 09:02:49;;;;;;;1.25;0.50;;;;;;;;;;5010773;28;20056;-65
2021/08/12 09:05:16;;;;;;;0.50;0.50;;;;;;;;;;5002035;28;20124;-65
2021/08/12 09:07:44;;;;;;;1.85;0.50;;;;;;;;;;5006504;28;20391;-65
2021/08/12 09:10:11;;;;;;;0.60;0.60;;;;;;;;;;5006619;28;20041;-66
2021/08/12 09:12:40;;;;;;;0.50;0.50;;;;;;;;;;4993218;28;20042;-66
2021/08/12 09:15:08;;;;;;;0.80;0.65;;;;;;;;;;5008886;28;20489;-66
2021/08/12 09:17:35;;;;;;;0.50;0.50;;;;;;;;;;5009217;28;20066;-66
2021/08/12 09:20:05;;;;;;;2.72;0.50;;;;;;;;;;5000420;28;20092;-66
2021/08/12 09:22:47;;;;;;;0.68;0.50;;;;;;;;;;5004564;28;20038;-66
2021/08/12 09:25:14;;;;;;;0.50;0.50;;;;;;;;;;4998652;28;20426;-65
2021/08/12 09:27:41;;;;;;;0.70;0.60;;;;;;;;;;4995218;28;20646;-66
2021/08/12 09:30:15;;;;;;;4.07;0.50;;;;;;;;;;5003792;28;20049;-66
2021/08/12 09:32:45;;;;;;;0.57;0.50;;;;;;;;;;5004152;28;20490;-66
2021/08/12 09:35:12;;;;;;;0.50;0.50;;;;;;;;;;5010362;28;20513;-66
2021/08/12 09:37:39;;;;;;;0.50;0.50;;;;;;;;;;5009187;28;20050;-66
2021/08/12 09:40:06;;;;;;;0.80;0.47;;;;;;;;;;4998656;28;20022;-66
2021/08/12 09:42:54;;;;;;;5.07;0.50;;;;;;;;;;5007752;28;20099;-66
2021/08/12 09:45:24;;;;;;;1.10;0.50;;;;;;;;;;5009431;28;20451;-66
2021/08/12 09:47:52;;;;;;;0.40;0.40;;;;;;;;;;4996550;28;20057;-66
2021/08/12 09:50:22;;;;;;;0.40;0.40;;;;;;;;;;5004798;28;20064;-66
2021/08/12 09:52:49;;;;;;;1.02;0.40;;;;;;;;;;5009566;28;20129;-66
2021/08/12 09:55:18;;;;;;;0.60;0.60;;;;;;;;;;5009293;28;20397;-66
2021/08/12 09:57:46;;;;;;;0.40;0.40;;;;;;;;;;5006140;28;20093;-66
2021/08/12 10:00:14;;;;;;;0.40;0.40;;;;;;;;;;5001611;28;20128;-66
2021/08/12 10:02:41;;;;;;;0.50;0.50;;;;;;;;;;5006006;28;20402;-66
2021/08/12 10:05:09;;;;;;;0.70;0.40;;;;;;;;;;4991779;28;20049;-66
2021/08/12 10:07:40;;;;;;;0.40;0.40;;;;;;;;;;5004938;28;20042;-66
2021/08/12 10:10:12;;;;;;;1.90;0.40;;;;;;;;;;4999215;28;20046;-66
2021/08/12 10:12:46;;;;;;;1.65;0.50;;;;;;;;;;5001300;28;20136;-65
2021/08/12 10:15:14;;;;;;;2.65;0.95;;;;;;;;;;5005659;28;20050;-66
2021/08/12 10:17:41;;;;;;;1.25;0.45;;;;;;;;;;5007980;28;20088;-66
2021/08/12 10:20:17;;;;;;;1.67;0.47;;;;;;;;;;5007054;28;20046;-66
2021/08/12 10:22:45;;;;;;;0.60;0.50;;;;;;;;;;5007011;28;20048;-65
2021/08/12 10:25:13;;;;;;;0.40;0.40;;;;;;;;;;5007576;28;20037;-66
2021/08/12 10:27:41;;;;;;;0.40;0.40;;;;;;;;;;5008386;28;20147;-66
2021/08/12 10:30:09;;;;;;;0.40;0.40;;;;;;;;;;5007238;28;20048;-66
2021/08/12 10:32:42;;;;;;;1.08;0.40;;;;;;;;;;5015710;28;20481;-66
2021/08/12 10:35:09;;;;;;;4.45;0.40;;;;;;;;;;5015607;28;20045;-66
2021/08/12 10:37:36;;;;;;;0.82;0.40;;;;;;;;;;5008082;28;20538;-66
2021/08/12 10:40:03;;;;;;;1.17;0.40;;;;;;;;;;5007828;28;20038;-66
2021/08/12 10:42:30;;;;;;;0.80;0.40;;;;;;;;;;4996895;28;20689;-65
2021/08/12 10:44:57;;;;;;;0.40;0.40;;;;;;;;;;5012364;28;20046;-66
2021/08/12 10:47:40;;;;;;;0.57;0.40;;;;;;;;;;5007186;28;20048;-66
2021/08/12 10:50:31;;;;;;;0.50;0.50;;;;;;;;;;5005560;28;20046;-66
2021/08/12 10:53:06;;;;;;;0.50;0.40;;;;;;;;;;5010866;28;20071;-66
2021/08/12 10:55:34;;;;;;;0.40;0.40;;;;;;;;;;5009940;28;20506;-66
2021/08/12 10:58:22;;;;;;;0.30;0.30;;;;;;;;;;4996002;28;20433;-65
2021/08/12 11:00:56;;;;;;;0.55;0.55;;;;;;;;;;5007050;28;20057;-65
2021/08/12 11:03:32;;;;;;;0.50;0.50;;;;;;;;;;5006021;28;20043;-65
2021/08/12 11:06:07;;;;;;;0.40;0.40;;;;;;;;;;5005326;28;20041;-65
2021/08/12 11:08:48;;;;;;;0.30;0.30;;;;;;;;;;5004098;28;20057;-65
2021/08/12 11:11:35;;;;;;;0.40;0.40;;;;;;;;;;5000978;28;20049;-65
2021/08/12 11:14:01;;;;;;;0.40;0.40;;;;;;;;;;5001856;28;20129;-65
2021/08/12 11:16:49;;;;;;;0.40;0.40;;;;;;;;;;5011582;28;20041;-65
2021/08/12 11:19:22;;;;;;;0.77;0.40;;;;;;;;;;5010174;28;20042;-65
2021/08/12 11:21:49;;;;;;;0.30;0.30;;;;;;;;;;5002414;28;20038;-65
2021/08/12 11:24:22;;;;;;;0.55;0.40;;;;;;;;;;5005367;28;20065;-65
2021/08/12 11:26:49;;;;;;;0.40;0.40;;;;;;;;;;5009427;28;20042;-65
2021/08/12 11:29:38;;;;;;;1.08;0.30;;;;;;;;;;5004974;28;20074;-65
2021/08/12 11:32:13;;;;;;;0.38;0.38;;;;;;;;;;5001289;28;20052;-65
2021/08/12 11:34:52;;;;;;;0.40;0.40;;;;;;;;;;5007507;28;20445;-65
2021/08/12 11:37:27;;;;;;;0.30;0.30;;;;;;;;;;5008949;28;20048;-65
2021/08/12 11:40:00;;;;;;;0.95;0.40;;;;;;;;;;5007973;28;20518;-61
2021/08/12 11:42:34;;;;;;;0.30;0.30;;;;;;;;;;5010866;28;20375;-61
2021/08/12 11:45:03;;;;;;;0.40;0.30;;;;;;;;;;5008385;28;20042;-61
2021/08/12 11:47:30;;;;;;;0.40;0.40;;;;;;;;;;5004042;28;20041;-61
2021/08/12 11:49:58;;;;;;;0.30;0.30;;;;;;;;;;5010705;28;20040;-61
2021/08/12 11:52:26;;;;;;;0.57;0.30;;;;;;;;;;5005733;28;20030;-61
2021/08/12 11:54:53;;;;;;;0.38;0.38;;;;;;;;;;5011812;28;20042;-61
2021/08/12 11:57:20;;;;;;;1.40;0.40;;;;;;;;;;5010322;28;20053;-61
2021/08/12 11:59:47;;;;;;;0.40;0.30;;;;;;;;;;5010774;28;20077;-61
2021/08/12 12:02:14;;;;;;;1.50;0.30;;;;;;;;;;5007446;28;20189;-61
2021/08/12 12:04:41;;;;;;;3.78;0.30;;;;;;;;;;5002215;28;20052;-61
2021/08/12 12:07:07;;;;;;;0.38;0.30;;;;;;;;;;5010815;28;20540;-61
2021/08/12 12:09:35;;;;;;;0.35;0.35;;;;;;;;;;5008519;28;20508;-61
2021/08/12 12:12:03;;;;;;;0.30;0.30;;;;;;;;;;4992638;28;20074;-61
2021/08/12 12:14:31;;;;;;;0.30;0.30;;;;;;;;;;5011564;28;20422;-61
2021/08/12 12:17:10;;;;;;;0.40;0.40;;;;;;;;;;5010451;28;20045;-60
2021/08/12 12:19:57;;;;;;;0.45;0.30;;;;;;;;;;5003068;28;20072;-61
2021/08/12 12:22:24;;;;;;;0.40;0.40;;;;;;;;;;5002585;28;20030;-61
2021/08/12 12:24:50;;;;;;;0.38;0.38;;;;;;;;;;4997835;28;20046;-61
2021/08/12 12:27:20;;;;;;;0.30;0.30;;;;;;;;;;5010882;28;20046;-61
2021/08/12 12:29:50;;;;;;;0.30;0.30;;;;;;;;;;5009516;28;20054;-61
2021/08/12 12:32:19;;;;;;;0.38;0.38;;;;;;;;;;5004175;28;20038;-60
2021/08/12 12:34:52;;;;;;;0.40;0.40;;;;;;;;;;5003227;28;20414;-61
2021/08/12 12:37:20;;;;;;;0.30;0.30;;;;;;;;;;5000358;28;20046;-41
2021/08/12 12:39:47;;;;;;;1.35;0.40;;;;;;;;;;5011137;28;20120;-46
2021/08/12 12:42:33;;;;;;;0.40;0.40;;;;;;;;;;5007543;28;20046;-46
2021/08/12 12:45:02;;;;;;;0.35;0.35;;;;;;;;;;5003760;28;20052;-46
2021/08/12 12:47:30;;;;;;;0.32;0.32;;;;;;;;;;4997439;28;20046;-47
2021/08/12 12:50:05;;;;;;;1.00;0.38;;;;;;;;;;5004156;28;20049;-47
2021/08/12 12:52:51;;;;;;;1.20;0.40;;;;;;;;;;5008428;28;20049;-47
2021/08/12 12:55:18;;;;;;;0.40;0.30;;;;;;;;;;5008871;28;20120;-47
2021/08/12 12:57:46;;;;;;;0.35;0.30;;;;;;;;;;5007148;28;20034;-47
2021/08/12 13:00:26;;;;;;;0.30;0.30;;;;;;;;;;5000382;28;20070;-48
2021/08/12 13:02:54;;;;;;;0.30;0.30;;;;;;;;;;5005217;28;20045;-47
2021/08/12 13:05:22;;;;;;;0.30;0.30;;;;;;;;;;5008082;28;20701;-45
2021/08/12 13:07:48;;;;;;;0.40;0.30;;;;;;;;;;4995204;28;20133;-45
2021/08/12 13:10:20;;;;;;;0.47;0.35;;;;;;;;;;5004450;28;20117;-49
2021/08/12 13:12:57;;;;;;;0.57;0.40;;;;;;;;;;4994775;28;20406;-47
2021/08/12 13:15:24;;;;;;;0.30;0.30;;;;;;;;;;5000986;28;20034;-47
2021/08/12 13:17:54;;;;;;;1.48;0.30;;;;;;;;;;5002158;28;20053;-50
2021/08/12 13:20:21;;;;;;;1.33;0.30;;;;;;;;;;5008285;28;20466;-47
2021/08/12 13:22:48;;;;;;;0.30;0.30;;;;;;;;;;5008115;28;20041;-48
2021/08/12 13:25:17;;;;;;;0.30;0.30;;;;;;;;;;5008045;28;20038;-48
2021/08/12 13:27:49;;;;;;;0.82;0.30;;;;;;;;;;5011219;28;20128;-46
2021/08/12 13:30:19;;;;;;;0.30;0.30;;;;;;;;;;5004770;28;20482;-46
2021/08/12 13:32:46;;;;;;;0.47;0.35;;;;;;;;;;4991756;28;20051;-47
2021/08/12 13:35:13;;;;;;;1.40;0.38;;;;;;;;;;5008641;28;20038;-47
2021/08/12 13:37:40;;;;;;;0.40;0.30;;;;;;;;;;5008480;28;20049;-46
2021/08/12 13:40:07;;;;;;;0.30;0.30;;;;;;;;;;5000917;28;20116;-48
2021/08/12 13:42:33;;;;;;;1.30;0.38;;;;;;;;;;5007036;28;20040;-46
2021/08/12 13:45:00;;;;;;;1.20;0.30;;;;;;;;;;4997667;28;20037;-45
2021/08/12 13:47:27;;;;;;;0.30;0.30;;;;;;;;;;5007406;28;20041;-46
2021/08/12 13:49:54;;;;;;;0.30;0.30;;;;;;;;;;5008816;28;20050;-47
2021/08/12 13:52:21;;;;;;;1.27;0.30;;;;;;;;;;5009114;28;20053;-46
2021/08/12 13:54:47;;;;;;;1.83;0.30;;;;;;;;;;5004530;28;20088;-48
2021/08/12 13:57:14;;;;;;;0.30;0.30;;;;;;;;;;4992613;28;20133;-50
2021/08/12 13:59:41;;;;;;;1.15;0.30;;;;;;;;;;5009552;28;20050;-47
2021/08/12 14:02:08;;;;;;;0.40;0.40;;;;;;;;;;5002170;28;20053;-49
2021/08/12 14:04:35;;;;;;;0.30;0.30;;;;;;;;;;5009367;28;20045;-47
2021/08/12 14:07:02;;;;;;;1.10;0.40;;;;;;;;;;5005509;28;20038;-47
2021/08/12 14:09:28;;;;;;;0.63;0.40;;;;;;;;;;4992825;28;20054;-46
2021/08/12 14:11:55;;;;;;;2.40;0.55;;;;;;;;;;4999380;28;20381;-47
2021/08/12 14:14:22;;;;;;;1.75;0.40;;;;;;;;;;5001035;28;20460;-46
2021/08/12 14:16:49;;;;;;;0.82;0.30;;;;;;;;;;4999434;28;20076;-49
2021/08/12 14:19:16;;;;;;;0.30;0.30;;;;;;;;;;5003376;28;20038;-46
2021/08/12 14:21:45;;;;;;;0.40;0.40;;;;;;;;;;4995160;28;20046;-48
2021/08/12 14:24:12;;;;;;;0.38;0.38;;;;;;;;;;4997986;28;20504;-47
2021/08/12 14:26:38;;;;;;;1.08;0.30;;;;;;;;;;5001265;28;20069;-47
2021/08/12 14:29:11;;;;;;;0.47;0.30;;;;;;;;;;4992689;28;20056;-47
2021/08/12 14:31:38;;;;;;;0.30;0.30;;;;;;;;;;5007882;28;20421;-47
2021/08/12 14:34:06;;;;;;;1.63;0.40;;;;;;;;;;5005941;28;20498;-46
2021/08/12 14:36:32;;;;;;;0.47;0.30;;;;;;;;;;5008917;28;20041;-47
2021/08/12 14:39:03;;;;;;;0.30;0.30;;;;;;;;;;5006419;28;20038;-47
2021/08/12 14:41:31;;;;;;;0.47;0.30;;;;;;;;;;5006686;28;20092;-46
2021/08/12 14:43:57;;;;;;;1.25;0.40;;;;;;;;;;5007549;28;20038;-46
2021/08/12 14:46:24;;;;;;;0.30;0.30;;;;;;;;;;5003035;28;20128;-46
2021/08/12 14:48:51;;;;;;;0.38;0.38;;;;;;;;;;5004707;28;20102;-47
2021/08/12 14:51:18;;;;;;;0.30;0.30;;;;;;;;;;4997908;28;20390;-46